Weather at College Park Airport

Public forecast

Using degrees Fahrenheit for public forecast. Weather courtesy of forecast.io.

Current aviation weather report (METAR) for College Park Airport

Retrieved 2022/01/21 07:15 UTC (0 seconds ago):

KCGS 210715Z AUTO 36008KT 10SM CLR M05/M16 A3042 RMK AO1 T10511160

Closest aviation forecast (TAF) to College Park Airport

Closest forecast is Ronald Reagan Washington National Airport, 9.4 nm (17.4 km) SW. Retrieved 2022/01/21 06:22 UTC (49 minutes ago):

TAF KDCA 210520Z 2106/2212 36009KT P6SM FEW250 FM211200 36007KT P6SM BKN200